KMFD/MFD METAR and TAF weather

Enter ICAO airport designator
Station Type Date Time Source
KMFD METAR 2020/12/05 03:52 UTC NOAA

KMFD 050352Z AUTO 29006KT 10SM OVC044 04/01 A2991 RMK AO2 SLP135 T00440011 TSNO


Station Type Date Time Source
KMFD Decoded METAR 2020/12/05 03:52 UTC NOAA

LAHM MUNICIPAL AIRPORT, OH, United States (KMFD) 40-49N 082-31W 395M
Dec 04, 2020 - 10:52 PM EST / 2020.12.05 0352 UTC
Wind: from the WNW (290 degrees) at 7 MPH (6 KT):0
Visibility: 10 mile(s):0
Sky conditions: overcast
Temperature: 39.9 F (4.4 C)
Dew Point: 34.0 F (1.1 C)
Relative Humidity: 79%
Pressure (altimeter): 29.91 in. Hg (1012 hPa)
ob: KMFD 050352Z AUTO 29006KT 10SM OVC044 04/01 A2991 RMK AO2 SLP135 T00440011 TSNO
cycle: 4

Station Type Date Time Source
KMFD TAF 2020/12/04 18:30 UTC NOAA

TAF KMFD 041728Z 0418/0518 23012KT P6SM FEW250
FM050600 31004KT P6SM BKN035
FM050700 32005KT P6SM BKN025

Example: see airport list